Time;durP1;ratioP1;P1;durP2;ratioP2;P2;SDS_P1;SDS_P2;PMS_P1;PMS_P2;Temp;Humidity;BMP_temperature;BMP_pressure;BME280_temperature;BME280_humidity;BME280_pressure;Samples;Min_cycle;Max_cycle;Signal;HPM_P1;HPM_P2
2023/03/14 00:02:22;;;;;;;2.23;1.30;;;;;;;;;;6236810;28;20291;-74
2023/03/14 00:05:27;;;;;;;1.20;1.20;;;;;;;;;;6236637;28;20475;-74
2023/03/14 00:08:32;;;;;;;2.10;1.23;;;;;;;;;;6235715;28;20491;-74
2023/03/14 00:11:37;;;;;;;2.53;1.10;;;;;;;;;;6219369;28;20296;-74
2023/03/14 00:14:44;;;;;;;3.53;1.20;;;;;;;;;;6212572;28;20292;-74
2023/03/14 00:17:49;;;;;;;1.23;1.23;;;;;;;;;;6212189;28;20587;-74
2023/03/14 00:20:54;;;;;;;2.03;1.20;;;;;;;;;;6212127;28;20296;-74
2023/03/14 00:23:59;;;;;;;1.00;1.00;;;;;;;;;;6212526;28;20294;-74
2023/03/14 00:27:05;;;;;;;2.63;1.37;;;;;;;;;;6212162;28;20599;-73
2023/03/14 00:30:14;;;;;;;1.57;1.30;;;;;;;;;;6211783;28;20479;-73
2023/03/14 00:33:19;;;;;;;1.63;1.00;;;;;;;;;;6211695;28;20298;-74
2023/03/14 00:36:24;;;;;;;1.00;1.00;;;;;;;;;;6213975;28;20549;-74
2023/03/14 00:39:29;;;;;;;2.23;1.10;;;;;;;;;;6234395;28;20316;-74
2023/03/14 00:42:34;;;;;;;4.67;1.30;;;;;;;;;;6235399;28;20319;-73
2023/03/14 00:45:41;;;;;;;2.57;1.00;;;;;;;;;;6234908;28;20302;-74
2023/03/14 00:48:46;;;;;;;2.60;1.23;;;;;;;;;;6234277;28;20302;-74
2023/03/14 00:51:52;;;;;;;2.17;1.10;;;;;;;;;;6234891;28;20291;-74
2023/03/14 00:54:57;;;;;;;2.30;1.10;;;;;;;;;;6234497;28;20330;-74
2023/03/14 00:58:03;;;;;;;1.70;1.00;;;;;;;;;;6236029;28;20303;-73
2023/03/14 01:01:11;;;;;;;1.27;0.97;;;;;;;;;;6234389;28;20298;-74
2023/03/14 01:04:16;;;;;;;1.00;1.00;;;;;;;;;;6234900;28;20292;-74
2023/03/14 01:07:22;;;;;;;1.53;1.03;;;;;;;;;;6234213;28;20300;-73
2023/03/14 01:10:27;;;;;;;1.47;1.10;;;;;;;;;;6226592;28;20794;-74
2023/03/14 01:13:32;;;;;;;1.70;1.10;;;;;;;;;;6209865;28;20472;-73
2023/03/14 01:16:41;;;;;;;0.90;0.90;;;;;;;;;;6209400;28;20277;-74
2023/03/14 01:19:46;;;;;;;2.77;1.00;;;;;;;;;;6209418;28;20300;-74
2023/03/14 01:22:52;;;;;;;3.23;1.03;;;;;;;;;;6210713;28;20300;-74
2023/03/14 01:25:58;;;;;;;3.07;1.10;;;;;;;;;;6212972;28;20287;-74
2023/03/14 01:29:04;;;;;;;2.20;1.00;;;;;;;;;;6209516;28;20305;-75
2023/03/14 01:32:14;;;;;;;0.90;0.90;;;;;;;;;;6209429;28;20580;-73
2023/03/14 01:35:19;;;;;;;4.77;1.00;;;;;;;;;;6210950;28;20390;-75
2023/03/14 01:38:25;;;;;;;0.90;0.90;;;;;;;;;;6231220;28;20310;-73
2023/03/14 01:41:30;;;;;;;2.13;0.87;;;;;;;;;;6234195;28;20291;-74
2023/03/14 01:44:51;;;;;;;0.83;0.67;;;;;;;;;;6234358;28;20303;-75
2023/03/14 01:47:57;;;;;;;0.97;0.97;;;;;;;;;;6234410;28;20288;-75
2023/03/14 01:51:04;;;;;;;1.00;1.00;;;;;;;;;;6233825;28;20307;-74
2023/03/14 01:54:15;;;;;;;1.23;1.13;;;;;;;;;;6235131;28;20304;-74
2023/03/14 01:57:23;;;;;;;0.90;0.90;;;;;;;;;;6234127;28;20288;-74
2023/03/14 02:00:29;;;;;;;2.70;0.90;;;;;;;;;;6233520;28;20622;-73
2023/03/14 02:03:39;;;;;;;2.47;0.87;;;;;;;;;;6233364;28;20622;-74
2023/03/14 02:06:51;;;;;;;0.73;0.73;;;;;;;;;;6234547;28;20288;-74
2023/03/14 02:10:00;;;;;;;1.00;1.00;;;;;;;;;;6234319;28;20607;-74
2023/03/14 02:13:09;;;;;;;1.00;0.77;;;;;;;;;;6217634;28;20309;-73
2023/03/14 02:16:29;;;;;;;0.90;0.90;;;;;;;;;;6220437;28;20304;-73
2023/03/14 02:20:13;;;;;;;0.90;0.90;;;;;;;;;;6219754;28;20301;-73
2023/03/14 02:23:28;;;;;;;1.30;1.00;;;;;;;;;;6220067;28;20301;-74
2023/03/14 02:26:38;;;;;;;1.80;1.00;;;;;;;;;;6222711;28;20294;-74
2023/03/14 02:29:49;;;;;;;0.97;0.87;;;;;;;;;;6219448;28;20300;-74
2023/03/14 02:32:58;;;;;;;1.40;0.90;;;;;;;;;;6219942;28;20295;-74
2023/03/14 02:36:07;;;;;;;0.90;0.90;;;;;;;;;;6220741;28;20300;-72
2023/03/14 02:39:17;;;;;;;2.07;1.10;;;;;;;;;;6242521;28;20316;-75
2023/03/14 02:42:24;;;;;;;1.53;0.90;;;;;;;;;;6237766;28;20351;-73
2023/03/14 02:45:42;;;;;;;2.23;1.20;;;;;;;;;;6237098;28;20324;-73
2023/03/14 02:48:50;;;;;;;0.80;0.80;;;;;;;;;;6236963;28;20291;-73
2023/03/14 02:51:56;;;;;;;1.63;0.80;;;;;;;;;;6237690;28;20323;-73
2023/03/14 02:55:01;;;;;;;0.97;0.97;;;;;;;;;;6236417;28;20292;-74
2023/03/14 02:58:07;;;;;;;2.37;1.10;;;;;;;;;;6236872;28;20360;-75
2023/03/14 03:01:14;;;;;;;1.00;0.93;;;;;;;;;;6237392;28;20303;-73
2023/03/14 03:04:20;;;;;;;1.17;0.90;;;;;;;;;;6238793;28;20296;-74
2023/03/14 03:07:26;;;;;;;2.47;1.00;;;;;;;;;;6238348;28;20492;-74
2023/03/14 03:10:33;;;;;;;2.27;1.00;;;;;;;;;;6226497;28;20304;-74
2023/03/14 03:13:38;;;;;;;1.00;1.00;;;;;;;;;;6212122;28;20312;-74
2023/03/14 03:16:46;;;;;;;1.37;0.90;;;;;;;;;;6211980;28;20419;-75
2023/03/14 03:19:51;;;;;;;1.00;1.00;;;;;;;;;;6212458;28;20556;-74
2023/03/14 03:22:57;;;;;;;2.83;1.10;;;;;;;;;;6211725;28;20292;-74
2023/03/14 03:26:02;;;;;;;1.10;1.00;;;;;;;;;;6213891;28;20292;-74
2023/03/14 03:29:08;;;;;;;0.80;0.80;;;;;;;;;;6211607;28;20293;-74
2023/03/14 03:32:15;;;;;;;0.93;0.93;;;;;;;;;;6212034;28;20296;-74
2023/03/14 03:35:21;;;;;;;2.47;0.90;;;;;;;;;;6211433;28;20296;-74
2023/03/14 03:38:26;;;;;;;2.63;1.10;;;;;;;;;;6231279;28;20302;-74
2023/03/14 03:41:33;;;;;;;1.07;0.97;;;;;;;;;;6235982;28;20476;-74
2023/03/14 03:44:39;;;;;;;1.67;1.23;;;;;;;;;;6235449;28;20303;-75
2023/03/14 03:47:48;;;;;;;1.27;1.20;;;;;;;;;;6235165;28;20300;-74
2023/03/14 03:50:53;;;;;;;0.90;0.90;;;;;;;;;;6236275;28;20362;-74
2023/03/14 03:54:00;;;;;;;1.13;1.10;;;;;;;;;;6235733;28;20296;-74
2023/03/14 03:57:09;;;;;;;1.07;1.00;;;;;;;;;;6236245;28;20299;-74
2023/03/14 04:00:15;;;;;;;1.20;0.90;;;;;;;;;;6238466;28;20300;-75
2023/03/14 04:03:21;;;;;;;1.30;0.90;;;;;;;;;;6247644;28;20295;-73
2023/03/14 04:06:27;;;;;;;3.03;0.90;;;;;;;;;;6254093;28;20311;-74
2023/03/14 04:09:35;;;;;;;1.70;1.00;;;;;;;;;;6259033;28;20402;-74
2023/03/14 04:12:48;;;;;;;0.87;0.87;;;;;;;;;;6222036;28;20300;-73
2023/03/14 04:15:58;;;;;;;1.00;1.00;;;;;;;;;;6210524;28;20564;-74
2023/03/14 04:19:06;;;;;;;1.37;0.80;;;;;;;;;;6210726;28;20305;-74
2023/03/14 04:22:13;;;;;;;0.93;0.93;;;;;;;;;;6236583;28;20599;-75
2023/03/14 04:25:26;;;;;;;1.03;1.03;;;;;;;;;;6234644;28;20558;-74
2023/03/14 04:28:36;;;;;;;2.37;0.83;;;;;;;;;;6234129;28;20283;-74
2023/03/14 04:31:42;;;;;;;0.80;0.80;;;;;;;;;;6234937;28;20455;-75
2023/03/14 04:34:49;;;;;;;0.90;0.90;;;;;;;;;;6235745;28;20376;-74
2023/03/14 04:37:54;;;;;;;0.80;0.80;;;;;;;;;;6220137;28;20293;-74
2023/03/14 04:41:00;;;;;;;1.13;1.13;;;;;;;;;;6210999;28;20304;-74
2023/03/14 04:44:11;;;;;;;0.98;0.98;;;;;;;;;;6209942;28;20317;-73
2023/03/14 04:47:16;;;;;;;1.00;1.00;;;;;;;;;;6211832;28;20301;-74
2023/03/14 04:50:25;;;;;;;0.82;0.82;;;;;;;;;;6209870;28;20376;-74
2023/03/14 04:53:30;;;;;;;1.13;1.10;;;;;;;;;;6209933;28;20293;-73
2023/03/14 04:56:39;;;;;;;1.20;1.00;;;;;;;;;;6210168;28;20288;-74
2023/03/14 04:59:45;;;;;;;1.48;1.00;;;;;;;;;;6210089;28;20469;-73
2023/03/14 05:03:11;;;;;;;1.03;1.03;;;;;;;;;;6211878;28;20293;-74
2023/03/14 05:06:30;;;;;;;2.45;1.30;;;;;;;;;;6209410;28;20296;-73
2023/03/14 05:09:59;;;;;;;1.10;1.10;;;;;;;;;;6205435;28;20305;-74
2023/03/14 05:13:19;;;;;;;1.20;1.20;;;;;;;;;;6234095;28;20288;-73
2023/03/14 05:16:45;;;;;;;4.93;1.30;;;;;;;;;;6228552;28;20284;-73
2023/03/14 05:20:09;;;;;;;1.27;1.20;;;;;;;;;;6219039;28;20297;-73
2023/03/14 05:23:34;;;;;;;1.20;1.07;;;;;;;;;;6210555;28;20292;-74
2023/03/14 05:27:00;;;;;;;1.70;1.03;;;;;;;;;;6190287;28;20289;-74
2023/03/14 05:30:19;;;;;;;3.45;1.20;;;;;;;;;;6225654;28;20300;-74
2023/03/14 05:33:24;;;;;;;2.30;1.00;;;;;;;;;;6235446;28;20288;-73
2023/03/14 05:36:52;;;;;;;3.17;1.00;;;;;;;;;;6237608;28;20298;-74
2023/03/14 05:40:21;;;;;;;3.23;1.13;;;;;;;;;;6259772;28;20311;-73
2023/03/14 05:43:49;;;;;;;1.80;1.20;;;;;;;;;;6253198;28;20287;-73
2023/03/14 05:47:30;;;;;;;2.30;1.07;;;;;;;;;;6210004;28;20304;-74
2023/03/14 05:50:59;;;;;;;1.10;1.10;;;;;;;;;;6253978;28;20322;-73
2023/03/14 05:54:27;;;;;;;1.00;1.00;;;;;;;;;;6233984;28;20308;-74
2023/03/14 05:57:53;;;;;;;1.43;1.10;;;;;;;;;;6260766;28;20296;-74
2023/03/14 06:01:19;;;;;;;1.70;1.07;;;;;;;;;;6258934;28;20302;-75
2023/03/14 06:04:51;;;;;;;1.77;1.40;;;;;;;;;;6257280;28;20315;-74
2023/03/14 06:07:56;;;;;;;3.23;1.43;;;;;;;;;;6261316;28;20287;-73
2023/03/14 06:11:05;;;;;;;3.93;1.17;;;;;;;;;;6256091;28;20308;-76
2023/03/14 06:14:12;;;;;;;1.50;1.20;;;;;;;;;;6236014;28;20299;-73
2023/03/14 06:17:21;;;;;;;3.27;1.33;;;;;;;;;;6235852;28;20603;-74
2023/03/14 06:20:35;;;;;;;1.93;1.40;;;;;;;;;;6236527;28;20289;-73
2023/03/14 06:23:40;;;;;;;1.37;1.20;;;;;;;;;;6233520;28;20364;-74
2023/03/14 06:26:45;;;;;;;3.77;1.00;;;;;;;;;;6233951;28;20303;-75
2023/03/14 06:29:52;;;;;;;2.93;1.30;;;;;;;;;;6234896;28;20300;-75
2023/03/14 06:32:57;;;;;;;1.33;1.13;;;;;;;;;;6234196;28;20308;-73
2023/03/14 06:36:03;;;;;;;1.30;1.20;;;;;;;;;;6233884;28;20304;-73
2023/03/14 06:39:10;;;;;;;4.40;1.63;;;;;;;;;;6257708;28;20311;-75
2023/03/14 06:42:21;;;;;;;7.97;1.90;;;;;;;;;;6258185;28;20295;-74
2023/03/14 06:45:28;;;;;;;2.23;2.07;;;;;;;;;;6257603;28;20306;-75
2023/03/14 06:48:35;;;;;;;5.57;2.07;;;;;;;;;;6257414;28;20452;-74
2023/03/14 06:51:40;;;;;;;1.90;1.80;;;;;;;;;;6259221;28;20315;-74
2023/03/14 06:54:48;;;;;;;3.70;1.67;;;;;;;;;;6258030;28;20291;-74
2023/03/14 06:57:56;;;;;;;1.50;1.40;;;;;;;;;;6263056;28;20295;-75
2023/03/14 07:01:05;;;;;;;2.90;1.60;;;;;;;;;;6262282;28;20295;-75
2023/03/14 07:04:17;;;;;;;1.73;1.23;;;;;;;;;;6263664;28;20292;-73
2023/03/14 07:07:25;;;;;;;2.17;1.03;;;;;;;;;;6262152;28;20628;-73
2023/03/14 07:10:30;;;;;;;2.17;1.33;;;;;;;;;;6260977;28;20658;-72
2023/03/14 07:13:36;;;;;;;2.10;1.20;;;;;;;;;;6212951;28;20319;-74
2023/03/14 07:16:45;;;;;;;3.77;1.50;;;;;;;;;;6213726;28;20257;-75
2023/03/14 07:19:50;;;;;;;1.30;1.20;;;;;;;;;;6213229;28;20395;-74
2023/03/14 07:22:56;;;;;;;1.33;1.00;;;;;;;;;;6213328;28;20308;-74
2023/03/14 07:26:13;;;;;;;1.37;1.07;;;;;;;;;;6213225;28;20474;-75
2023/03/14 07:29:24;;;;;;;1.73;1.10;;;;;;;;;;6212423;28;20297;-74
2023/03/14 07:32:31;;;;;;;4.75;1.10;;;;;;;;;;6213359;28;20309;-74
2023/03/14 07:35:37;;;;;;;3.23;1.27;;;;;;;;;;6214248;28;20304;-74
2023/03/14 07:38:42;;;;;;;1.10;1.00;;;;;;;;;;6234088;28;20296;-75
2023/03/14 07:42:13;;;;;;;3.10;1.00;;;;;;;;;;6237480;28;20311;-74
2023/03/14 07:45:35;;;;;;;0.90;0.90;;;;;;;;;;6237698;28;20312;-74
2023/03/14 07:48:48;;;;;;;2.13;1.30;;;;;;;;;;6240164;28;20288;-74
2023/03/14 07:51:54;;;;;;;2.25;1.08;;;;;;;;;;6222396;28;20307;-73
2023/03/14 07:54:59;;;;;;;4.00;1.10;;;;;;;;;;6221263;28;20297;-76
2023/03/14 07:58:05;;;;;;;2.97;1.53;;;;;;;;;;6240635;28;20293;-74
2023/03/14 08:01:11;;;;;;;2.27;1.00;;;;;;;;;;6237378;28;20494;-74
2023/03/14 08:04:17;;;;;;;3.85;1.50;;;;;;;;;;6237499;28;20292;-74
2023/03/14 08:07:23;;;;;;;2.23;1.00;;;;;;;;;;6238328;28;20300;-76
2023/03/14 08:10:29;;;;;;;1.60;1.03;;;;;;;;;;6237364;28;20498;-75
2023/03/14 08:13:34;;;;;;;0.70;0.70;;;;;;;;;;6236353;28;20299;-74
2023/03/14 08:16:39;;;;;;;0.87;0.87;;;;;;;;;;6237461;28;20280;-74
2023/03/14 08:19:45;;;;;;;0.80;0.80;;;;;;;;;;6237460;28;20308;-75
2023/03/14 08:22:51;;;;;;;0.93;0.80;;;;;;;;;;6237818;28;20330;-74
2023/03/14 08:25:56;;;;;;;0.80;0.80;;;;;;;;;;6237603;28;20292;-74
2023/03/14 08:29:02;;;;;;;2.00;0.90;;;;;;;;;;6236742;28;20300;-73
2023/03/14 08:32:08;;;;;;;0.90;0.90;;;;;;;;;;6237502;28;20289;-74
2023/03/14 08:35:15;;;;;;;1.10;0.65;;;;;;;;;;6237125;28;20295;-74
2023/03/14 08:38:21;;;;;;;3.22;1.10;;;;;;;;;;6218230;28;20460;-74
2023/03/14 08:41:26;;;;;;;0.70;0.70;;;;;;;;;;6212237;28;20297;-75
2023/03/14 08:44:31;;;;;;;0.70;0.70;;;;;;;;;;6210925;28;20493;-73
2023/03/14 08:47:37;;;;;;;0.70;0.70;;;;;;;;;;6212870;28;20305;-74
2023/03/14 08:50:43;;;;;;;0.52;0.52;;;;;;;;;;6210779;28;20469;-73
2023/03/14 08:53:49;;;;;;;0.80;0.80;;;;;;;;;;6211974;28;20293;-74
2023/03/14 08:56:54;;;;;;;2.40;0.90;;;;;;;;;;6212417;28;20489;-74
2023/03/14 08:59:59;;;;;;;0.70;0.70;;;;;;;;;;6212432;28;20312;-74
2023/03/14 09:03:05;;;;;;;0.63;0.63;;;;;;;;;;6212620;28;20317;-74
2023/03/14 09:06:13;;;;;;;1.75;0.73;;;;;;;;;;6212086;28;20297;-75
2023/03/14 09:09:18;;;;;;;1.15;0.70;;;;;;;;;;6211353;28;20461;-74
2023/03/14 09:12:23;;;;;;;0.87;0.87;;;;;;;;;;6229897;28;20291;-75
2023/03/14 09:15:28;;;;;;;2.43;0.80;;;;;;;;;;6234471;28;20320;-76
2023/03/14 09:18:34;;;;;;;0.70;0.70;;;;;;;;;;6235140;28;20308;-74
2023/03/14 09:21:40;;;;;;;1.05;1.05;;;;;;;;;;6236446;28;20559;-75
2023/03/14 09:24:46;;;;;;;0.93;0.60;;;;;;;;;;6236154;28;20305;-76
2023/03/14 09:27:51;;;;;;;1.45;0.85;;;;;;;;;;6236588;28;20545;-74
2023/03/14 09:30:56;;;;;;;1.40;0.70;;;;;;;;;;6234368;28;20293;-74
2023/03/14 09:34:01;;;;;;;0.77;0.70;;;;;;;;;;6238416;28;20324;-75
2023/03/14 09:37:08;;;;;;;1.25;1.25;;;;;;;;;;6228078;28;20296;-74
2023/03/14 09:40:16;;;;;;;0.68;0.68;;;;;;;;;;6211818;28;20292;-75
2023/03/14 09:43:23;;;;;;;0.73;0.73;;;;;;;;;;6212093;28;20292;-75
2023/03/14 09:46:29;;;;;;;1.13;0.93;;;;;;;;;;6211033;28;20297;-75
2023/03/14 09:49:37;;;;;;;1.48;1.40;;;;;;;;;;6220541;28;20300;-74
2023/03/14 09:52:46;;;;;;;1.17;1.17;;;;;;;;;;6235605;28;20284;-73
2023/03/14 09:55:53;;;;;;;4.57;1.40;;;;;;;;;;6235460;28;20309;-74
2023/03/14 09:59:00;;;;;;;0.73;0.73;;;;;;;;;;6235460;28;20304;-74
2023/03/14 10:02:15;;;;;;;1.90;1.80;;;;;;;;;;6236464;28;20292;-73
2023/03/14 10:05:22;;;;;;;1.58;1.50;;;;;;;;;;6235862;28;20292;-73
2023/03/14 10:08:29;;;;;;;1.40;1.35;;;;;;;;;;6237216;28;20285;-73
2023/03/14 10:11:34;;;;;;;1.00;1.00;;;;;;;;;;6219537;28;20307;-75
2023/03/14 10:14:47;;;;;;;0.98;0.98;;;;;;;;;;6234998;28;20300;-75
2023/03/14 10:17:53;;;;;;;1.00;0.95;;;;;;;;;;6236252;28;20292;-74
2023/03/14 10:21:06;;;;;;;0.80;0.80;;;;;;;;;;6235729;28;20297;-73
2023/03/14 10:24:23;;;;;;;0.80;0.80;;;;;;;;;;6235199;28;20305;-73
2023/03/14 10:27:32;;;;;;;2.15;1.35;;;;;;;;;;6235415;28;20553;-74
2023/03/14 10:30:46;;;;;;;1.40;1.40;;;;;;;;;;6238006;28;20296;-74
2023/03/14 10:34:00;;;;;;;2.25;1.30;;;;;;;;;;6239338;28;20292;-74
2023/03/14 10:37:08;;;;;;;2.47;2.47;;;;;;;;;;6249309;28;20287;-74
2023/03/14 10:40:16;;;;;;;1.70;1.70;;;;;;;;;;6263929;28;20473;-75
2023/03/14 10:43:26;;;;;;;1.30;1.30;;;;;;;;;;6264706;28;20409;-74
2023/03/14 10:46:33;;;;;;;1.60;1.60;;;;;;;;;;6238907;28;20308;-72
2023/03/14 10:50:25;;;;;;;1.35;1.35;;;;;;;;;;6256447;28;20482;-74
2023/03/14 10:53:35;;;;;;;1.73;1.73;;;;;;;;;;6263505;28;20584;-72
2023/03/14 10:56:42;;;;;;;1.70;1.70;;;;;;;;;;6263392;28;20292;-73
2023/03/14 10:59:47;;;;;;;1.00;1.00;;;;;;;;;;6262231;28;20295;-73
2023/03/14 11:03:05;;;;;;;1.85;1.77;;;;;;;;;;6263801;28;20291;-74
2023/03/14 11:06:14;;;;;;;2.40;2.20;;;;;;;;;;6263479;28;20296;-73
2023/03/14 11:09:24;;;;;;;5.28;2.30;;;;;;;;;;6262980;28;20296;-75
2023/03/14 11:12:42;;;;;;;2.20;2.20;;;;;;;;;;6232000;28;20301;-75
2023/03/14 11:15:55;;;;;;;1.40;1.40;;;;;;;;;;6214136;28;20469;-75
2023/03/14 11:19:18;;;;;;;1.85;1.80;;;;;;;;;;6214399;28;20592;-73
2023/03/14 11:22:29;;;;;;;9.57;3.05;;;;;;;;;;6214519;28;20298;-74
2023/03/14 11:25:38;;;;;;;2.83;1.30;;;;;;;;;;6211584;28;20493;-74
2023/03/14 11:28:48;;;;;;;1.23;1.23;;;;;;;;;;6213850;28;20294;-73
2023/03/14 11:31:56;;;;;;;1.25;1.08;;;;;;;;;;6214529;28;20302;-74
2023/03/14 11:35:06;;;;;;;1.10;1.05;;;;;;;;;;6211826;28;20593;-74
2023/03/14 11:38:25;;;;;;;1.05;1.05;;;;;;;;;;6232168;28;20366;-74
2023/03/14 11:41:33;;;;;;;1.10;1.10;;;;;;;;;;6237129;28;20292;-75
2023/03/14 11:44:41;;;;;;;0.95;0.90;;;;;;;;;;6236663;28;20297;-74
2023/03/14 11:47:48;;;;;;;1.50;1.00;;;;;;;;;;6237791;28;20300;-72
2023/03/14 11:51:03;;;;;;;1.00;1.00;;;;;;;;;;6244908;28;20324;-72
2023/03/14 11:54:15;;;;;;;0.80;0.80;;;;;;;;;;6236588;28;20292;-73
2023/03/14 11:57:22;;;;;;;1.00;0.82;;;;;;;;;;6237177;28;20289;-71
2023/03/14 12:00:29;;;;;;;1.90;0.88;;;;;;;;;;6237519;28;20304;-73
2023/03/14 12:03:39;;;;;;;1.00;1.00;;;;;;;;;;6237398;28;20317;-73
2023/03/14 12:06:48;;;;;;;3.58;0.95;;;;;;;;;;6237507;28;20296;-73
2023/03/14 12:09:55;;;;;;;0.98;0.98;;;;;;;;;;6237020;28;20296;-72
2023/03/14 12:13:00;;;;;;;2.70;1.42;;;;;;;;;;6237236;28;20471;-74
2023/03/14 12:16:10;;;;;;;2.03;1.15;;;;;;;;;;6236250;28;20296;-73
2023/03/14 12:19:32;;;;;;;2.35;1.13;;;;;;;;;;6237294;28;20307;-73
2023/03/14 12:22:42;;;;;;;4.07;0.90;;;;;;;;;;6236089;28;20463;-72
2023/03/14 12:25:47;;;;;;;3.53;1.25;;;;;;;;;;6236855;28;20305;-74
2023/03/14 12:29:10;;;;;;;1.00;1.00;;;;;;;;;;6238281;28;20307;-73
2023/03/14 12:32:26;;;;;;;0.90;0.90;;;;;;;;;;6237867;28;20292;-75
2023/03/14 12:35:37;;;;;;;1.38;0.82;;;;;;;;;;6235752;28;20292;-76
2023/03/14 12:38:57;;;;;;;1.25;1.00;;;;;;;;;;6214447;28;20309;-74
2023/03/14 12:42:08;;;;;;;1.20;0.82;;;;;;;;;;6212986;28;20292;-73
2023/03/14 12:45:26;;;;;;;7.00;1.10;;;;;;;;;;6212036;28;20305;-72
2023/03/14 12:48:33;;;;;;;3.60;1.20;;;;;;;;;;6213867;28;20417;-73
2023/03/14 12:51:39;;;;;;;2.65;1.02;;;;;;;;;;6214333;28;20300;-73
2023/03/14 12:54:49;;;;;;;1.00;1.00;;;;;;;;;;6211049;28;20301;-73
2023/03/14 12:58:02;;;;;;;0.98;0.95;;;;;;;;;;6212843;28;20293;-73
2023/03/14 13:01:11;;;;;;;1.10;1.10;;;;;;;;;;6212098;28;20297;-72
2023/03/14 13:04:17;;;;;;;0.93;0.85;;;;;;;;;;6212200;28;20293;-72
2023/03/14 13:07:52;;;;;;;1.02;1.02;;;;;;;;;;6211072;28;20578;-72
2023/03/14 13:10:58;;;;;;;1.08;1.08;;;;;;;;;;6217429;28;20309;-73
2023/03/14 13:14:09;;;;;;;0.90;0.90;;;;;;;;;;6237031;28;20288;-73
2023/03/14 13:17:17;;;;;;;1.35;1.25;;;;;;;;;;6236905;28;20300;-74
2023/03/14 13:20:45;;;;;;;1.98;1.00;;;;;;;;;;6235843;28;20288;-73
2023/03/14 13:23:59;;;;;;;2.17;1.10;;;;;;;;;;6235808;28;20296;-75
2023/03/14 13:27:05;;;;;;;3.77;1.13;;;;;;;;;;6236118;28;20296;-73
2023/03/14 13:30:23;;;;;;;0.90;0.90;;;;;;;;;;6234483;28;20296;-75
2023/03/14 13:33:28;;;;;;;1.20;1.20;;;;;;;;;;6235342;28;20292;-73
2023/03/14 13:36:36;;;;;;;2.17;1.33;;;;;;;;;;6231265;28;20293;-75
2023/03/14 13:39:42;;;;;;;1.85;1.38;;;;;;;;;;6211087;28;20297;-74
2023/03/14 13:42:47;;;;;;;1.95;1.13;;;;;;;;;;6211635;28;20305;-74
2023/03/14 13:45:54;;;;;;;1.13;1.13;;;;;;;;;;6211797;28;20304;-74
2023/03/14 13:49:03;;;;;;;1.80;1.40;;;;;;;;;;6211130;28;20289;-74
2023/03/14 13:52:29;;;;;;;3.30;1.00;;;;;;;;;;6211588;28;20486;-74
2023/03/14 13:55:35;;;;;;;1.08;1.08;;;;;;;;;;6210044;28;20321;-74
2023/03/14 13:58:42;;;;;;;1.40;1.40;;;;;;;;;;6210995;28;20406;-73
2023/03/14 14:01:48;;;;;;;1.20;1.10;;;;;;;;;;6211388;28;20273;-73
2023/03/14 14:04:53;;;;;;;1.00;1.00;;;;;;;;;;6213352;28;20288;-74
2023/03/14 14:08:00;;;;;;;1.00;1.00;;;;;;;;;;6216251;28;20300;-73
2023/03/14 14:11:06;;;;;;;1.10;1.10;;;;;;;;;;6222826;28;20300;-74
2023/03/14 14:14:17;;;;;;;1.10;1.10;;;;;;;;;;6240105;28;20548;-73
2023/03/14 14:17:24;;;;;;;3.80;1.20;;;;;;;;;;6240693;28;20300;-73
2023/03/14 14:20:33;;;;;;;1.70;1.00;;;;;;;;;;6240049;28;20604;-73
2023/03/14 14:23:41;;;;;;;1.30;1.20;;;;;;;;;;6239588;28;20304;-74
2023/03/14 14:26:49;;;;;;;1.10;1.10;;;;;;;;;;6243874;28;20292;-73
2023/03/14 14:30:02;;;;;;;2.00;1.10;;;;;;;;;;6239755;28;20312;-74
2023/03/14 14:33:19;;;;;;;1.17;1.17;;;;;;;;;;6239438;28;20439;-73
2023/03/14 14:36:27;;;;;;;2.40;1.23;;;;;;;;;;6235517;28;20300;-74
2023/03/14 14:39:33;;;;;;;1.07;1.07;;;;;;;;;;6214920;28;20300;-73
2023/03/14 14:42:41;;;;;;;2.10;1.50;;;;;;;;;;6215482;28;20288;-74
2023/03/14 14:45:48;;;;;;;1.23;1.23;;;;;;;;;;6215102;28;20605;-74
2023/03/14 14:48:57;;;;;;;1.67;1.10;;;;;;;;;;6213328;28;20288;-75
2023/03/14 14:52:04;;;;;;;1.00;1.00;;;;;;;;;;6214106;28;20292;-74
2023/03/14 14:55:19;;;;;;;1.10;1.10;;;;;;;;;;6214948;28;20300;-74
2023/03/14 14:58:27;;;;;;;1.07;1.07;;;;;;;;;;6214902;28;20475;-73
2023/03/14 15:01:35;;;;;;;1.13;1.03;;;;;;;;;;6214108;28;20272;-73
2023/03/14 15:04:40;;;;;;;1.10;1.10;;;;;;;;;;6214668;28;20291;-74
2023/03/14 15:07:46;;;;;;;2.83;1.10;;;;;;;;;;6214363;28;20380;-74
2023/03/14 15:10:52;;;;;;;2.97;2.80;;;;;;;;;;6219393;28;20307;-73
2023/03/14 15:13:58;;;;;;;1.73;1.57;;;;;;;;;;6238218;28;20419;-73
2023/03/14 15:17:03;;;;;;;1.90;1.90;;;;;;;;;;6237878;28;20291;-74
2023/03/14 15:20:13;;;;;;;1.63;1.27;;;;;;;;;;6238610;28;20311;-74
2023/03/14 15:23:20;;;;;;;0.90;0.90;;;;;;;;;;6237191;28;20351;-74
2023/03/14 15:26:28;;;;;;;1.10;1.10;;;;;;;;;;6237198;28;20299;-74
2023/03/14 15:29:34;;;;;;;1.00;1.00;;;;;;;;;;6238455;28;20303;-73
2023/03/14 15:32:39;;;;;;;1.00;1.00;;;;;;;;;;6238515;28;20291;-74
2023/03/14 15:35:45;;;;;;;1.50;1.50;;;;;;;;;;6237801;28;20304;-73
2023/03/14 15:38:50;;;;;;;1.30;1.20;;;;;;;;;;6214545;28;20312;-73
2023/03/14 15:41:57;;;;;;;1.70;1.70;;;;;;;;;;6214190;28;20296;-73
2023/03/14 15:45:02;;;;;;;1.40;1.30;;;;;;;;;;6213619;28;20477;-72
2023/03/14 15:48:15;;;;;;;1.60;1.60;;;;;;;;;;6214184;28;20300;-73
2023/03/14 15:51:21;;;;;;;2.30;2.30;;;;;;;;;;6213850;28;20309;-73
2023/03/14 15:54:28;;;;;;;1.50;1.50;;;;;;;;;;6213695;28;20588;-72
2023/03/14 15:57:34;;;;;;;1.13;1.13;;;;;;;;;;6213732;28;20419;-72
2023/03/14 16:00:40;;;;;;;1.40;1.40;;;;;;;;;;6213604;28;20300;-72
2023/03/14 16:03:45;;;;;;;1.60;1.60;;;;;;;;;;6216901;28;20367;-72
2023/03/14 16:06:51;;;;;;;2.17;1.93;;;;;;;;;;6213776;28;20307;-73
2023/03/14 16:09:56;;;;;;;1.13;1.13;;;;;;;;;;6212668;28;20296;-73
2023/03/14 16:13:03;;;;;;;1.37;1.37;;;;;;;;;;6235889;28;20470;-73
2023/03/14 16:16:09;;;;;;;1.70;1.40;;;;;;;;;;6237827;28;20290;-72
2023/03/14 16:19:15;;;;;;;1.70;1.60;;;;;;;;;;6237693;28;20298;-72
2023/03/14 16:22:20;;;;;;;1.33;1.33;;;;;;;;;;6237940;28;20294;-72
2023/03/14 16:25:25;;;;;;;1.70;1.60;;;;;;;;;;6237670;28;20308;-71
2023/03/14 16:28:32;;;;;;;1.90;1.30;;;;;;;;;;6236829;28;20311;-72
2023/03/14 16:31:41;;;;;;;1.53;1.53;;;;;;;;;;6235895;28;20279;-72
2023/03/14 16:34:47;;;;;;;1.37;1.37;;;;;;;;;;6236528;28;20300;-72
2023/03/14 16:37:53;;;;;;;1.20;1.20;;;;;;;;;;6221239;28;20305;-72
2023/03/14 16:40:59;;;;;;;1.50;1.50;;;;;;;;;;6212713;28;20299;-72
2023/03/14 16:44:06;;;;;;;1.40;1.40;;;;;;;;;;6211313;28;20450;-72
2023/03/14 16:47:12;;;;;;;1.43;1.40;;;;;;;;;;6212608;28;20303;-72
2023/03/14 16:50:18;;;;;;;1.40;1.40;;;;;;;;;;6212670;28;20308;-72
2023/03/14 16:53:23;;;;;;;1.57;1.47;;;;;;;;;;6211959;28;20359;-73
2023/03/14 16:56:29;;;;;;;1.60;1.60;;;;;;;;;;6212227;28;20287;-73
2023/03/14 16:59:35;;;;;;;1.67;1.60;;;;;;;;;;6212177;28;20299;-72
2023/03/14 17:02:40;;;;;;;1.80;1.80;;;;;;;;;;6212804;28;20294;-75
2023/03/14 17:05:47;;;;;;;2.03;1.90;;;;;;;;;;6212340;28;20488;-73
2023/03/14 17:08:52;;;;;;;1.60;1.50;;;;;;;;;;6210124;28;20298;-74
2023/03/14 17:11:57;;;;;;;1.60;1.60;;;;;;;;;;6224823;28;20409;-74
2023/03/14 17:15:04;;;;;;;2.30;1.30;;;;;;;;;;6236674;28;20294;-73
2023/03/14 17:18:12;;;;;;;1.80;1.80;;;;;;;;;;6236666;28;20298;-74
2023/03/14 17:21:17;;;;;;;1.80;1.80;;;;;;;;;;6235737;28;20297;-73
2023/03/14 17:24:23;;;;;;;1.70;1.70;;;;;;;;;;6235199;28;20304;-73
2023/03/14 17:27:28;;;;;;;1.80;1.80;;;;;;;;;;6235972;28;20289;-73
2023/03/14 17:30:35;;;;;;;1.63;1.63;;;;;;;;;;6235291;28;20311;-73
2023/03/14 17:33:40;;;;;;;2.10;1.97;;;;;;;;;;6233799;28;20303;-73
2023/03/14 17:36:45;;;;;;;2.00;2.00;;;;;;;;;;6229434;28;20289;-73
2023/03/14 17:39:50;;;;;;;2.00;2.00;;;;;;;;;;6211874;28;20307;-73
2023/03/14 17:42:55;;;;;;;2.07;2.07;;;;;;;;;;6211714;28;20291;-73
2023/03/14 17:46:05;;;;;;;5.70;5.50;;;;;;;;;;6211108;28;20299;-73
2023/03/14 17:49:12;;;;;;;3.13;3.00;;;;;;;;;;6210407;28;20303;-73
2023/03/14 17:52:17;;;;;;;3.72;3.47;;;;;;;;;;6209945;28;20476;-73
2023/03/14 17:55:22;;;;;;;3.50;3.40;;;;;;;;;;6209630;28;20307;-73
2023/03/14 17:58:27;;;;;;;2.87;2.77;;;;;;;;;;6211339;28;20296;-75
2023/03/14 18:01:34;;;;;;;2.43;2.33;;;;;;;;;;6210083;28;20274;-74
2023/03/14 18:04:39;;;;;;;2.33;2.23;;;;;;;;;;6210646;28;20374;-75
2023/03/14 18:07:44;;;;;;;2.50;2.40;;;;;;;;;;6210899;28;20301;-74
2023/03/14 18:10:54;;;;;;;2.70;2.60;;;;;;;;;;6214831;28;20391;-75
2023/03/14 18:14:03;;;;;;;2.50;2.50;;;;;;;;;;6233754;28;20389;-76
2023/03/14 18:17:11;;;;;;;3.90;2.73;;;;;;;;;;6235061;28;20460;-76
2023/03/14 18:20:17;;;;;;;3.67;3.57;;;;;;;;;;6233520;28;20293;-76
2023/03/14 18:23:22;;;;;;;3.10;3.00;;;;;;;;;;6235663;28;20295;-75
2023/03/14 18:26:28;;;;;;;2.50;2.40;;;;;;;;;;6235523;28;20296;-75
2023/03/14 18:29:33;;;;;;;2.33;2.23;;;;;;;;;;6234697;28;20301;-73
2023/03/14 18:32:40;;;;;;;2.40;2.30;;;;;;;;;;6235120;28;20296;-75
2023/03/14 18:35:45;;;;;;;2.33;2.23;;;;;;;;;;6235020;28;20376;-74
2023/03/14 18:38:55;;;;;;;2.37;2.27;;;;;;;;;;6211728;28;20303;-75
2023/03/14 18:42:00;;;;;;;3.10;3.00;;;;;;;;;;6211277;28;20460;-74
2023/03/14 18:45:06;;;;;;;2.50;2.40;;;;;;;;;;6210329;28;20298;-75
2023/03/14 18:48:14;;;;;;;2.20;2.10;;;;;;;;;;6210659;28;20296;-74
2023/03/14 18:51:19;;;;;;;2.70;2.60;;;;;;;;;;6214043;28;20486;-75
2023/03/14 18:54:25;;;;;;;1.70;1.70;;;;;;;;;;6217132;28;20297;-74